Time;durP1;ratioP1;P1;durP2;ratioP2;P2;SDS_P1;SDS_P2;PMS_P1;PMS_P2;Temp;Humidity;BMP_temperature;BMP_pressure;BME280_temperature;BME280_humidity;BME280_pressure;Samples;Min_cycle;Max_cycle;Signal;HPM_P1;HPM_P2
2022/06/26 00:02:03;;;;;;;23.67;19.27;;;18.40;99.90;;;;;;4989578;28;20049;-85
2022/06/26 00:04:29;;;;;;;19.45;17.30;;;18.40;99.90;;;;;;5006644;28;20093;-85
2022/06/26 00:06:55;;;;;;;21.67;18.73;;;18.40;99.90;;;;;;4991414;28;20050;-86
2022/06/26 00:09:21;;;;;;;21.30;19.20;;;18.40;99.90;;;;;;4973895;28;20126;-85
2022/06/26 00:11:47;;;;;;;19.98;18.13;;;18.30;99.90;;;;;;4990210;28;20050;-83
2022/06/26 00:14:12;;;;;;;20.52;18.38;;;18.30;99.90;;;;;;4973804;28;20042;-84
2022/06/26 00:16:38;;;;;;;21.70;19.50;;;18.30;99.90;;;;;;4974160;28;20097;-85
2022/06/26 00:19:03;;;;;;;21.50;19.38;;;18.20;99.90;;;;;;4973569;28;20100;-84
2022/06/26 00:21:29;;;;;;;20.33;18.33;;;18.20;99.90;;;;;;4989987;28;20038;-85
2022/06/26 00:23:55;;;;;;;19.67;17.80;;;18.20;99.90;;;;;;4991170;28;20125;-84
2022/06/26 00:26:20;;;;;;;20.73;18.60;;;18.10;99.90;;;;;;4992605;28;20034;-85
2022/06/26 00:28:46;;;;;;;20.17;17.30;;;18.00;99.90;;;;;;4995005;28;20061;-84
2022/06/26 00:31:12;;;;;;;19.65;17.77;;;18.00;99.90;;;;;;4993135;28;20049;-84
2022/06/26 00:33:37;;;;;;;19.85;17.83;;;17.90;99.90;;;;;;4993931;28;20054;-85
2022/06/26 00:36:03;;;;;;;20.25;18.25;;;17.90;99.90;;;;;;4993142;28;20038;-84
2022/06/26 00:38:29;;;;;;;19.10;17.20;;;17.80;99.90;;;;;;4994748;28;20057;-84
2022/06/26 00:40:54;;;;;;;20.17;18.08;;;17.70;99.90;;;;;;4993477;28;20046;-84
2022/06/26 00:43:20;;;;;;;19.02;17.00;;;17.70;99.90;;;;;;4992845;28;20104;-85
2022/06/26 00:45:46;;;;;;;21.40;19.33;;;17.70;99.90;;;;;;4993550;28;20060;-84
2022/06/26 00:48:11;;;;;;;19.85;17.52;;;17.70;99.90;;;;;;4993127;28;20355;-84
2022/06/26 00:50:37;;;;;;;18.65;16.65;;;17.70;99.90;;;;;;4993823;28;20072;-83
2022/06/26 00:53:03;;;;;;;21.77;19.70;;;17.60;99.90;;;;;;4994297;28;20359;-84
2022/06/26 00:55:29;;;;;;;22.95;20.58;;;17.60;99.90;;;;;;4994017;28;20049;-87
2022/06/26 00:57:55;;;;;;;20.88;18.73;;;17.60;99.90;;;;;;4993598;28;20042;-85
2022/06/26 01:00:20;;;;;;;19.02;17.15;;;17.60;99.90;;;;;;4994120;28;20787;-84
2022/06/26 01:02:46;;;;;;;19.05;17.27;;;17.50;99.90;;;;;;4977110;28;20046;-85
2022/06/26 01:05:12;;;;;;;19.85;17.88;;;17.50;99.90;;;;;;4992715;28;20450;-85
2022/06/26 01:07:39;;;;;;;23.45;20.92;;;17.50;99.90;;;;;;4993128;28;20137;-85
2022/06/26 01:10:05;;;;;;;22.88;20.67;;;17.60;99.90;;;;;;4992541;28;20359;-85
2022/06/26 01:12:31;;;;;;;22.52;20.23;;;17.60;99.90;;;;;;4977128;28;20069;-85
2022/06/26 01:14:56;;;;;;;24.58;22.05;;;17.50;99.90;;;;;;4976610;28;20568;-84
2022/06/26 01:17:22;;;;;;;25.90;23.38;;;17.60;99.90;;;;;;4992583;28;20419;-84
2022/06/26 01:19:48;;;;;;;26.35;23.60;;;17.70;99.90;;;;;;4993108;28;20074;-84
2022/06/26 01:22:14;;;;;;;24.75;22.50;;;17.70;99.90;;;;;;4991925;28;20483;-85
2022/06/26 01:24:39;;;;;;;23.85;21.42;;;17.80;99.90;;;;;;4993898;28;20518;-86
2022/06/26 01:27:05;;;;;;;24.30;21.85;;;17.80;99.90;;;;;;4993975;28;20038;-85
2022/06/26 01:29:31;;;;;;;23.27;20.98;;;17.50;99.90;;;;;;4993404;28;20062;-84
2022/06/26 01:31:56;;;;;;;32.58;25.48;;;17.70;99.90;;;;;;4994178;28;20050;-86
2022/06/26 01:34:22;;;;;;;26.88;24.15;;;17.70;99.90;;;;;;4994491;28;20053;-85
2022/06/26 01:36:48;;;;;;;27.85;25.05;;;17.70;99.90;;;;;;4994235;28;20042;-85
2022/06/26 01:39:13;;;;;;;25.98;22.80;;;17.80;99.90;;;;;;4992050;28;20043;-85
2022/06/26 01:41:39;;;;;;;26.20;23.45;;;17.80;99.90;;;;;;4992589;28;20046;-85
2022/06/26 01:44:07;;;;;;;24.30;21.80;;;17.90;99.90;;;;;;4975815;28;20377;-84
2022/06/26 01:46:32;;;;;;;23.17;20.70;;;18.00;99.90;;;;;;4992361;28;20050;-86
2022/06/26 01:48:58;;;;;;;22.55;20.15;;;18.10;99.90;;;;;;4992450;28;20425;-86
2022/06/26 01:51:24;;;;;;;23.35;20.90;;;18.20;99.90;;;;;;4976012;28;20421;-86
2022/06/26 01:53:49;;;;;;;24.20;19.98;;;18.20;99.90;;;;;;4993641;28;20049;-86
2022/06/26 01:56:15;;;;;;;20.48;18.52;;;18.30;99.90;;;;;;4992966;28;20065;-85
2022/06/26 01:58:41;;;;;;;21.30;19.13;;;18.30;99.90;;;;;;4992202;28;20410;-87
2022/06/26 02:01:08;;;;;;;19.77;17.70;;;18.40;99.90;;;;;;4993488;28;20485;-84
2022/06/26 02:03:34;;;;;;;19.58;17.55;;;18.40;99.90;;;;;;4992171;28;20108;-85
2022/06/26 02:05:59;;;;;;;18.45;16.08;;;18.40;99.90;;;;;;4993425;28;20042;-84
2022/06/26 02:08:25;;;;;;;18.50;16.48;;;18.40;99.90;;;;;;4975646;28;20049;-84
2022/06/26 02:13:42;;;;;;;17.92;16.30;;;18.50;99.90;;;;;;5008269;28;20050;-84
2022/06/26 02:16:12;;;;;;;19.38;17.30;;;18.50;99.90;;;;;;4992763;28;20127;-84
2022/06/26 02:18:38;;;;;;;18.10;16.27;;;18.50;99.90;;;;;;4992991;28;20435;-84
2022/06/26 02:21:06;;;;;;;18.80;17.00;;;18.50;99.90;;;;;;4975780;28;20162;-84
2022/06/26 02:23:32;;;;;;;18.23;16.27;;;18.60;99.90;;;;;;4975702;28;20053;-85
2022/06/26 02:25:57;;;;;;;22.05;18.08;;;18.50;99.90;;;;;;4992664;28;20042;-86
2022/06/26 02:28:23;;;;;;;21.45;17.58;;;18.50;99.90;;;;;;4992143;28;20058;-86
2022/06/26 02:30:49;;;;;;;33.45;22.95;;;18.40;99.90;;;;;;4993259;28;20381;-82
2022/06/26 02:33:15;;;;;;;27.42;21.45;;;18.40;99.90;;;;;;4991261;28;20463;-83
2022/06/26 02:35:40;;;;;;;29.00;23.58;;;18.30;99.90;;;;;;4975377;28;20050;-83
2022/06/26 02:38:06;;;;;;;25.67;22.00;;;18.20;99.90;;;;;;4991389;28;20042;-82
2022/06/26 02:40:33;;;;;;;27.15;23.20;;;18.20;99.90;;;;;;4990913;28;20377;-83
2022/06/26 02:42:59;;;;;;;25.98;23.30;;;18.10;99.90;;;;;;4991300;28;20052;-84
2022/06/26 02:45:24;;;;;;;26.77;23.90;;;18.10;99.90;;;;;;4991744;28;20125;-81
2022/06/26 02:47:50;;;;;;;29.35;25.58;;;18.00;99.90;;;;;;4990474;28;20046;-81
2022/06/26 02:50:16;;;;;;;31.92;25.95;;;17.90;99.90;;;;;;4991920;28;20553;-85
2022/06/26 02:52:42;;;;;;;32.35;28.83;;;17.90;99.90;;;;;;4992336;28;20483;-81
2022/06/26 02:55:08;;;;;;;34.00;27.77;;;17.80;99.90;;;;;;4990978;28;20410;-82
2022/06/26 02:57:33;;;;;;;27.80;24.88;;;17.70;99.90;;;;;;4991857;28;20117;-82
2022/06/26 02:59:59;;;;;;;32.75;27.05;;;17.70;99.90;;;;;;4990858;28;20153;-83
2022/06/26 03:02:25;;;;;;;29.50;25.05;;;17.70;99.90;;;;;;4990375;28;20549;-83
2022/06/26 03:04:52;;;;;;;24.17;21.52;;;17.70;99.90;;;;;;4992637;28;20381;-82
2022/06/26 03:07:18;;;;;;;21.48;19.17;;;17.60;99.90;;;;;;4991691;28;20482;-90
2022/06/26 03:09:43;;;;;;;22.30;19.77;;;17.60;99.90;;;;;;4990836;28;20057;-82
2022/06/26 03:12:09;;;;;;;21.45;17.33;;;17.60;99.90;;;;;;4974527;28;20394;-82
2022/06/26 03:14:35;;;;;;;23.75;18.75;;;17.50;99.90;;;;;;4990274;28;20050;-82
2022/06/26 03:17:01;;;;;;;23.23;17.05;;;17.50;99.90;;;;;;4990862;28;20038;-82
2022/06/26 03:19:27;;;;;;;18.83;16.88;;;17.50;99.90;;;;;;4992477;28;20045;-82
2022/06/26 03:21:53;;;;;;;15.80;14.10;;;17.50;99.90;;;;;;4992302;28;20140;-82
2022/06/26 03:24:18;;;;;;;17.60;14.60;;;17.50;99.90;;;;;;4990871;28;20085;-81
2022/06/26 03:26:44;;;;;;;17.38;13.82;;;17.50;99.90;;;;;;4991994;28;20045;-82
2022/06/26 03:29:10;;;;;;;17.23;13.85;;;17.50;99.90;;;;;;4991754;28;20061;-81
2022/06/26 03:31:36;;;;;;;16.38;14.68;;;17.50;99.90;;;;;;4990722;28;20042;-82
2022/06/26 03:34:02;;;;;;;17.70;14.07;;;17.40;99.90;;;;;;4992262;28;20459;-82
2022/06/26 03:36:28;;;;;;;25.50;14.90;;;17.40;99.90;;;;;;4990849;28;20378;-82
2022/06/26 03:38:53;;;;;;;15.20;13.52;;;17.40;99.90;;;;;;4991090;28;20054;-82
2022/06/26 03:41:19;;;;;;;15.35;11.85;;;17.40;99.90;;;;;;4990650;28;20088;-81
2022/06/26 03:43:45;;;;;;;14.15;12.52;;;17.40;99.90;;;;;;4990287;28;20088;-84
2022/06/26 03:46:11;;;;;;;13.57;10.93;;;17.40;99.90;;;;;;4990947;28;20077;-83
2022/06/26 03:48:36;;;;;;;15.15;11.85;;;17.40;99.90;;;;;;4974701;28;20050;-82
2022/06/26 03:51:03;;;;;;;13.10;11.68;;;17.40;99.90;;;;;;4990909;28;20082;-81
2022/06/26 03:53:28;;;;;;;14.07;11.90;;;17.40;99.90;;;;;;4974294;28;20150;-81
2022/06/26 03:55:54;;;;;;;12.07;9.98;;;17.40;99.90;;;;;;4974518;28;20125;-83
2022/06/26 03:58:20;;;;;;;13.52;10.40;;;17.40;99.90;;;;;;4991935;28;20042;-82
2022/06/26 04:00:45;;;;;;;10.00;8.98;;;17.30;99.90;;;;;;4995053;28;20057;-82
2022/06/26 04:03:11;;;;;;;10.30;8.90;;;17.30;99.90;;;;;;4996003;28;20096;-83
2022/06/26 04:05:39;;;;;;;8.88;7.97;;;17.30;99.90;;;;;;4994459;28;20042;-82
2022/06/26 04:08:05;;;;;;;9.63;8.65;;;17.30;99.90;;;;;;4995820;28;20046;-83
2022/06/26 04:10:31;;;;;;;8.90;8.07;;;17.20;99.90;;;;;;4994029;28;20518;-85
2022/06/26 04:13:04;;;;;;;9.85;8.77;;;17.20;99.90;;;;;;4995865;28;20133;-82
2022/06/26 04:15:31;;;;;;;8.48;7.05;;;17.20;99.90;;;;;;4993883;28;20046;-84
2022/06/26 04:17:57;;;;;;;8.48;6.90;;;17.20;99.90;;;;;;4977952;28;20046;-83
2022/06/26 04:20:23;;;;;;;9.77;7.40;;;17.10;99.90;;;;;;4978093;28;20042;-82
2022/06/26 04:23:02;;;;;;;8.63;7.65;;;17.10;99.90;;;;;;4977538;28;20085;-83
2022/06/26 04:25:29;;;;;;;10.23;7.95;;;17.10;99.90;;;;;;4978162;28;20046;-83
2022/06/26 04:27:54;;;;;;;9.45;6.85;;;17.10;99.90;;;;;;4995249;28;20065;-82
2022/06/26 04:30:20;;;;;;;9.20;6.72;;;17.10;99.90;;;;;;5009727;28;20054;-82
2022/06/26 04:32:46;;;;;;;8.73;7.18;;;17.10;99.90;;;;;;4995125;28;20383;-84
2022/06/26 04:35:12;;;;;;;8.77;7.72;;;17.00;99.90;;;;;;4995136;28;20038;-83
2022/06/26 04:37:37;;;;;;;9.90;6.65;;;17.10;99.90;;;;;;4994510;28;20050;-83
2022/06/26 04:40:04;;;;;;;8.70;6.95;;;17.20;99.90;;;;;;4995136;28;20042;-83
2022/06/26 04:42:30;;;;;;;8.75;6.78;;;17.20;99.90;;;;;;4995016;28;20046;-83
2022/06/26 04:44:56;;;;;;;6.20;5.70;;;17.30;99.90;;;;;;4993657;28;20045;-83
2022/06/26 04:47:21;;;;;;;8.13;6.75;;;17.30;99.90;;;;;;4993197;28;20092;-83
2022/06/26 04:49:47;;;;;;;7.65;5.68;;;17.30;99.90;;;;;;4993169;28;20061;-84
2022/06/26 04:52:14;;;;;;;8.35;6.13;;;17.20;99.90;;;;;;4995088;28;20035;-82
2022/06/26 04:54:40;;;;;;;7.10;6.45;;;18.60;99.90;;;;;;4993325;28;20042;-82
2022/06/26 04:57:06;;;;;;;7.20;6.05;;;17.20;99.90;;;;;;4977256;28;20041;-82
2022/06/26 04:59:32;;;;;;;6.72;6.00;;;17.20;99.90;;;;;;4993416;28;20125;-82
2022/06/26 05:01:58;;;;;;;8.77;6.55;;;17.20;99.90;;;;;;4993613;28;20160;-83
2022/06/26 05:04:23;;;;;;;7.40;6.70;;;17.20;99.90;;;;;;4994368;28;20061;-82
2022/06/26 05:06:49;;;;;;;9.23;6.15;;;17.30;99.90;;;;;;4994110;28;20050;-84
2022/06/26 05:09:14;;;;;;;7.07;6.15;;;17.30;99.90;;;;;;4994193;28;20046;-88
2022/06/26 05:11:41;;;;;;;7.38;6.60;;;17.50;99.90;;;;;;4992260;28;20042;-81
2022/06/26 05:14:07;;;;;;;7.85;6.05;;;17.40;99.90;;;;;;4993499;28;20548;-82
2022/06/26 05:16:33;;;;;;;5.95;5.35;;;17.70;99.90;;;;;;4993125;28;20113;-85
2022/06/26 05:18:59;;;;;;;9.15;6.70;;;18.10;99.90;;;;;;4994666;28;20089;-82
2022/06/26 05:21:24;;;;;;;6.63;6.03;;;18.70;99.90;;;;;;4977268;28;20053;-82
2022/06/26 05:23:50;;;;;;;7.30;6.55;;;19.00;99.90;;;;;;4993964;28;20042;-84
2022/06/26 05:26:16;;;;;;;6.38;5.78;;;18.90;99.90;;;;;;4992838;28;20037;-84
2022/06/26 05:28:41;;;;;;;7.55;5.55;;;18.80;99.90;;;;;;4992215;28;20050;-83
2022/06/26 05:31:07;;;;;;;7.60;6.65;;;18.80;99.90;;;;;;4995134;28;20452;-83
2022/06/26 05:33:33;;;;;;;7.72;6.80;;;18.50;99.90;;;;;;4993256;28;20057;-83
2022/06/26 05:35:58;;;;;;;8.48;7.57;;;18.40;99.90;;;;;;4994446;28;20038;-84
2022/06/26 05:38:24;;;;;;;8.32;7.45;;;18.30;99.90;;;;;;4993849;28;20076;-83
2022/06/26 05:40:50;;;;;;;9.15;8.32;;;18.20;99.90;;;;;;4994395;28;20042;-83
2022/06/26 05:43:15;;;;;;;8.60;7.88;;;18.20;99.90;;;;;;4994033;28;20042;-83
2022/06/26 05:45:41;;;;;;;8.85;7.13;;;18.20;99.90;;;;;;4994057;28;20034;-83
2022/06/26 05:48:07;;;;;;;9.25;8.25;;;18.20;99.90;;;;;;4992767;28;20037;-82
2022/06/26 05:50:33;;;;;;;10.80;9.00;;;18.20;99.90;;;;;;4993814;28;20108;-84
2022/06/26 05:52:58;;;;;;;10.32;9.27;;;18.20;99.90;;;;;;4975701;28;20042;-84
2022/06/26 05:55:24;;;;;;;10.73;9.38;;;18.30;99.90;;;;;;4994049;28;20050;-83
2022/06/26 05:57:50;;;;;;;10.65;9.55;;;18.40;99.90;;;;;;4976618;28;20501;-84
2022/06/26 06:00:16;;;;;;;11.55;8.75;;;18.60;99.90;;;;;;4993136;28;20042;-83
2022/06/26 06:02:41;;;;;;;9.68;8.77;;;18.70;99.90;;;;;;4991544;28;20054;-83
2022/06/26 06:05:08;;;;;;;10.23;8.38;;;19.20;99.90;;;;;;4993068;28;20054;-82
2022/06/26 06:07:36;;;;;;;9.00;8.10;;;19.60;99.90;;;;;;4975871;28;20042;-83
2022/06/26 06:10:03;;;;;;;8.48;7.68;;;19.70;99.90;;;;;;4993146;28;20050;-83
2022/06/26 06:12:28;;;;;;;10.25;8.32;;;19.70;99.90;;;;;;4993328;28;20076;-84
2022/06/26 06:14:54;;;;;;;9.70;8.80;;;19.50;99.90;;;;;;4993138;28;20157;-83
2022/06/26 06:17:40;;;;;;;9.77;8.77;;;19.50;99.90;;;;;;4993089;28;20077;-84
2022/06/26 06:20:18;;;;;;;9.48;8.32;;;19.60;99.90;;;;;;4976129;28;20073;-84
2022/06/26 06:22:53;;;;;;;10.95;9.82;;;19.90;99.90;;;;;;4974936;28;20053;-83
2022/06/26 06:25:19;;;;;;;9.73;8.73;;;20.30;99.90;;;;;;4975937;28;20046;-83
2022/06/26 06:27:45;;;;;;;10.27;8.55;;;20.60;99.90;;;;;;4991363;28;20066;-84
2022/06/26 06:30:11;;;;;;;10.57;9.57;;;20.90;99.90;;;;;;4992339;28;20055;-83
2022/06/26 06:32:36;;;;;;;10.35;9.35;;;21.00;99.90;;;;;;4993380;28;20129;-84
2022/06/26 06:35:03;;;;;;;11.05;10.00;;;20.50;99.90;;;;;;4991884;28;20161;-85
2022/06/26 06:37:29;;;;;;;13.13;11.77;;;20.40;99.90;;;;;;4991617;28;20042;-84
2022/06/26 06:39:54;;;;;;;12.85;11.60;;;20.30;99.90;;;;;;4991644;28;20054;-83
2022/06/26 06:42:20;;;;;;;14.65;13.10;;;20.10;99.90;;;;;;4991893;28;20082;-85
2022/06/26 06:44:46;;;;;;;13.48;12.15;;;20.00;99.90;;;;;;4991343;28;20050;-84
2022/06/26 06:47:14;;;;;;;15.43;14.02;;;20.40;99.90;;;;;;4975680;28;20145;-85
2022/06/26 06:49:40;;;;;;;14.63;12.73;;;20.20;99.90;;;;;;4993025;28;20096;-84
2022/06/26 06:52:06;;;;;;;16.52;14.85;;;20.40;99.90;;;;;;4991528;28;20054;-88
2022/06/26 06:54:32;;;;;;;14.88;13.45;;;20.60;99.90;;;;;;4991682;28;20096;-84
2022/06/26 06:56:57;;;;;;;15.65;13.88;;;20.70;99.90;;;;;;4992606;28;20054;-87
2022/06/26 06:59:23;;;;;;;16.55;14.95;;;20.80;99.90;;;;;;4993483;28;20133;-86
2022/06/26 07:01:49;;;;;;;17.35;15.55;;;20.50;99.90;;;;;;4992174;28;20125;-85
2022/06/26 07:04:14;;;;;;;16.45;14.85;;;20.70;99.90;;;;;;4993195;28;20046;-85
2022/06/26 07:06:40;;;;;;;16.10;14.48;;;20.40;99.90;;;;;;4992170;28;20105;-88
2022/06/26 07:09:06;;;;;;;17.67;15.95;;;20.40;99.90;;;;;;4991834;28;20058;-85
2022/06/26 07:11:32;;;;;;;18.15;16.50;;;20.30;99.90;;;;;;4992270;28;20046;-85
2022/06/26 07:13:58;;;;;;;18.25;16.48;;;20.20;99.90;;;;;;4975086;28;20054;-88
2022/06/26 07:16:23;;;;;;;18.42;15.35;;;20.40;99.90;;;;;;4991848;28;20398;-85
2022/06/26 07:18:49;;;;;;;19.35;17.17;;;20.50;99.90;;;;;;4991699;28;20400;-85
2022/06/26 07:21:15;;;;;;;17.92;15.73;;;20.60;99.90;;;;;;4992642;28;20043;-85
2022/06/26 07:23:40;;;;;;;19.38;17.48;;;20.70;99.90;;;;;;4992238;28;20038;-86
2022/06/26 07:26:06;;;;;;;20.63;17.50;;;21.50;99.90;;;;;;4992316;28;20558;-86
2022/06/26 07:28:32;;;;;;;18.08;16.27;;;22.30;99.90;;;;;;4991242;28;20066;-87
2022/06/26 07:30:57;;;;;;;19.52;17.63;;;22.20;99.90;;;;;;4991670;28;20137;-87
2022/06/26 07:36:07;;;;;;;17.88;16.17;;;22.50;99.90;;;;;;5006710;28;20065;-85
2022/06/26 07:38:33;;;;;;;17.13;15.57;;;22.60;99.90;;;;;;4974540;28;20047;-87
2022/06/26 07:40:58;;;;;;;16.70;15.15;;;22.50;99.90;;;;;;4990899;28;20613;-86
2022/06/26 07:43:24;;;;;;;16.48;15.05;;;22.70;99.90;;;;;;4992029;28;20042;-84
2022/06/26 07:45:50;;;;;;;19.23;17.38;;;22.70;99.90;;;;;;4990671;28;20411;-88
2022/06/26 07:48:15;;;;;;;16.67;15.27;;;22.80;99.90;;;;;;4989787;28;20501;-87
2022/06/26 07:50:41;;;;;;;16.60;15.10;;;23.30;99.90;;;;;;4973543;28;20050;-87
2022/06/26 07:53:07;;;;;;;15.77;14.38;;;23.10;99.90;;;;;;4973271;28;20046;-87
2022/06/26 07:55:32;;;;;;;16.90;15.40;;;23.40;99.90;;;;;;4989670;28;20105;-88
2022/06/26 07:57:58;;;;;;;16.85;15.25;;;23.10;99.90;;;;;;4989189;28;20073;-89
2022/06/26 08:00:24;;;;;;;17.30;15.70;;;23.40;99.90;;;;;;4989793;28;20053;-88
2022/06/26 08:02:49;;;;;;;16.38;14.80;;;23.00;99.90;;;;;;4990971;28;20105;-88
2022/06/26 08:05:15;;;;;;;14.15;12.80;;;23.40;99.90;;;;;;4973731;28;20050;-87
2022/06/26 08:07:41;;;;;;;14.80;13.50;;;23.60;99.90;;;;;;4990027;28;20068;-88
2022/06/26 08:10:07;;;;;;;15.23;13.82;;;23.60;99.90;;;;;;4990780;28;20048;-88
2022/06/26 08:12:33;;;;;;;13.18;12.07;;;24.20;99.90;;;;;;4973714;28;20042;-88
2022/06/26 08:14:58;;;;;;;13.23;10.35;;;24.60;99.90;;;;;;4973129;28;20483;-85
2022/06/26 08:17:24;;;;;;;11.43;10.43;;;24.70;99.90;;;;;;4989720;28;20053;-85
2022/06/26 08:19:49;;;;;;;11.70;10.60;;;24.20;99.90;;;;;;4990985;28;20050;-89
2022/06/26 08:22:15;;;;;;;12.90;11.80;;;24.00;99.90;;;;;;4990805;28;20042;-88
2022/06/26 08:24:41;;;;;;;11.95;10.75;;;24.00;99.90;;;;;;4990884;28;20046;-88
2022/06/26 08:27:10;;;;;;;11.43;10.32;;;23.80;99.90;;;;;;4973194;28;20509;-89
2022/06/26 08:29:37;;;;;;;12.43;11.35;;;23.30;99.90;;;;;;4971065;28;20109;-87
2022/06/26 08:32:02;;;;;;;12.68;11.38;;;23.00;99.90;;;;;;4989660;28;20050;-87
2022/06/26 08:34:28;;;;;;;11.23;10.20;;;22.80;99.90;;;;;;4990315;28;20645;-88
2022/06/26 08:36:54;;;;;;;10.45;9.30;;;23.10;99.90;;;;;;4989899;28;20399;-87
2022/06/26 08:39:20;;;;;;;9.52;8.60;;;23.30;99.90;;;;;;4957948;28;20046;-88
2022/06/26 08:41:47;;;;;;;8.25;7.50;;;23.90;99.90;;;;;;4990193;28;20057;-88
2022/06/26 08:44:13;;;;;;;8.45;7.65;;;24.50;99.90;;;;;;4977179;28;20077;-88
2022/06/26 08:46:43;;;;;;;10.23;7.40;;;25.10;99.90;;;;;;4965172;28;20048;-89
2022/06/26 08:49:33;;;;;;;7.57;6.95;;;25.70;99.90;;;;;;4990791;28;20064;-88
2022/06/26 08:51:59;;;;;;;9.80;7.80;;;26.20;99.90;;;;;;4989727;28;20471;-87
2022/06/26 08:54:24;;;;;;;7.20;6.38;;;25.30;99.90;;;;;;4992465;28;20042;-87
2022/06/26 08:56:50;;;;;;;6.15;5.30;;;24.40;99.90;;;;;;4959934;28;20502;-88
2022/06/26 08:59:17;;;;;;;5.60;4.15;;;24.20;99.90;;;;;;4983745;28;20362;-89
2022/06/26 09:01:43;;;;;;;3.47;3.17;;;24.50;99.90;;;;;;4999349;28;20057;-87
2022/06/26 09:04:09;;;;;;;4.55;2.80;;;24.90;99.90;;;;;;4999873;28;20042;-88
2022/06/26 09:06:35;;;;;;;3.88;3.15;;;25.20;99.90;;;;;;4980955;28;20061;-89
2022/06/26 09:09:11;;;;;;;4.35;3.60;;;25.20;99.90;;;;;;4996538;28;20077;-89
2022/06/26 09:11:40;;;;;;;4.35;3.38;;;25.80;99.90;;;;;;4965222;28;20451;-89
2022/06/26 09:14:05;;;;;;;3.65;3.35;;;26.10;99.90;;;;;;4991600;28;20418;-89
2022/06/26 09:16:31;;;;;;;4.60;3.95;;;26.40;99.90;;;;;;5003784;28;20050;-89
2022/06/26 09:19:10;;;;;;;4.00;3.50;;;26.80;99.90;;;;;;4995334;28;20452;-91
2022/06/26 09:21:36;;;;;;;4.05;3.65;;;26.30;99.90;;;;;;4989127;28;20089;-90
2022/06/26 09:24:02;;;;;;;4.20;3.00;;;26.50;99.90;;;;;;4991118;28;20063;-93
2022/06/26 09:26:27;;;;;;;4.28;3.35;;;27.10;99.90;;;;;;4966533;28;20092;-91
2022/06/26 09:28:53;;;;;;;4.88;4.30;;;26.70;99.90;;;;;;4974461;28;20046;-90
2022/06/26 09:31:22;;;;;;;4.43;3.55;;;26.60;99.90;;;;;;4991626;28;20486;-90
2022/06/26 09:33:47;;;;;;;3.78;3.03;;;27.30;99.90;;;;;;4990264;28;20127;-90
2022/06/26 09:36:17;;;;;;;4.53;3.20;;;27.20;99.90;;;;;;4990480;28;20483;-90
2022/06/26 09:38:50;;;;;;;4.55;3.35;;;27.50;99.90;;;;;;4993057;28;20050;-89
2022/06/26 09:41:16;;;;;;;;;;;26.90;99.90;;;;;;4976343;28;20133;-87
2022/06/26 09:43:42;;;;;;;3.83;2.45;;;27.00;99.90;;;;;;4971559;28;20458;-88
2022/06/26 09:46:13;;;;;;;3.92;2.40;;;27.30;99.90;;;;;;4988021;28;20554;-88
2022/06/26 09:48:40;;;;;;;1.50;1.40;;;26.90;99.90;;;;;;4983142;28;20049;-87
2022/06/26 09:51:10;;;;;;;3.25;1.70;;;27.20;99.90;;;;;;4989644;28;20455;-88
2022/06/26 09:53:36;;;;;;;2.88;1.58;;;27.10;99.90;;;;;;4989505;28;20054;-87
2022/06/26 09:56:02;;;;;;;2.78;1.80;;;26.90;99.90;;;;;;4989977;28;20062;-90
2022/06/26 09:58:28;;;;;;;3.50;2.20;;;26.80;99.90;;;;;;4989993;28;20051;-87
2022/06/26 10:06:29;;;;;;;2.80;2.13;;;26.80;99.90;;;;;;4992115;28;20471;-87
2022/06/26 10:08:58;;;;;;;3.78;1.98;;;26.20;99.90;;;;;;4991686;28;20057;-86
2022/06/26 10:11:28;;;;;;;4.53;2.60;;;26.00;99.90;;;;;;4992304;28;20057;-87
2022/06/26 10:14:01;;;;;;;2.70;2.50;;;25.80;99.90;;;;;;4990995;28;20434;-88
2022/06/26 10:16:39;;;;;;;4.40;2.25;;;25.70;99.90;;;;;;4991293;28;20141;-86
2022/06/26 10:19:08;;;;;;;2.78;2.13;;;26.10;99.90;;;;;;4989910;28;20038;-87
2022/06/26 10:21:37;;;;;;;2.20;2.00;;;26.40;99.90;;;;;;4991359;28;20046;-86
2022/06/26 10:24:03;;;;;;;3.17;2.20;;;26.60;99.90;;;;;;4989966;28;20458;-89
2022/06/26 10:26:29;;;;;;;3.00;2.08;;;26.50;99.90;;;;;;4988171;28;20100;-89
2022/06/26 10:29:00;;;;;;;4.50;2.53;;;26.80;99.90;;;;;;4989408;28;20289;-86
2022/06/26 10:31:28;;;;;;;2.50;2.30;;;26.70;99.90;;;;;;4989060;28;20050;-89
2022/06/26 10:33:54;;;;;;;3.58;2.58;;;26.50;99.90;;;;;;4990720;28;20656;-87
2022/06/26 10:36:24;;;;;;;2.70;2.50;;;25.90;99.90;;;;;;4990362;28;20230;-86
2022/06/26 10:38:50;;;;;;;2.30;2.10;;;25.20;99.90;;;;;;4989547;28;20093;-86
2022/06/26 10:44:02;;;;;;;2.55;2.33;;;25.40;99.90;;;;;;4976284;28;20062;-84
2022/06/26 10:46:48;;;;;;;3.92;2.35;;;25.10;99.90;;;;;;4988869;28;20069;-86
2022/06/26 10:49:14;;;;;;;2.83;2.20;;;25.10;99.90;;;;;;4970792;28;20047;-84
2022/06/26 10:51:41;;;;;;;3.55;1.95;;;25.20;99.90;;;;;;4970065;28;20057;-85
2022/06/26 10:54:23;;;;;;;2.67;2.20;;;24.60;99.90;;;;;;4970370;28;20121;-85
2022/06/26 10:57:08;;;;;;;4.43;2.60;;;24.70;99.90;;;;;;4969647;28;20051;-88
2022/06/26 10:59:37;;;;;;;2.92;2.55;;;24.30;99.90;;;;;;4985979;28;20381;-86
2022/06/26 11:02:03;;;;;;;2.60;2.30;;;24.50;99.90;;;;;;4984790;28;20042;-86
2022/06/26 11:04:29;;;;;;;2.30;2.10;;;24.30;99.90;;;;;;4971189;28;20057;-88
2022/06/26 11:06:54;;;;;;;3.40;2.00;;;24.40;99.90;;;;;;4989955;28;20554;-88
2022/06/26 11:09:20;;;;;;;3.22;2.28;;;24.50;99.90;;;;;;4989606;28;20049;-85
2022/06/26 11:11:45;;;;;;;2.88;2.03;;;24.60;99.90;;;;;;4993966;28;20335;-85
2022/06/26 11:14:11;;;;;;;3.78;2.70;;;24.60;99.90;;;;;;4973092;28;20117;-86
2022/06/26 11:16:38;;;;;;;2.72;2.00;;;24.50;99.90;;;;;;4990355;28;20046;-87
2022/06/26 11:19:08;;;;;;;5.05;2.72;;;24.40;99.90;;;;;;4973267;28;20049;-90
2022/06/26 11:21:33;;;;;;;3.65;2.40;;;24.70;99.90;;;;;;4990477;28;20073;-88
2022/06/26 11:23:59;;;;;;;3.17;2.20;;;24.90;99.90;;;;;;4992203;28;20058;-89
2022/06/26 11:26:25;;;;;;;3.05;2.20;;;25.20;99.90;;;;;;4972866;28;20046;-88
2022/06/26 11:28:59;;;;;;;3.28;2.03;;;25.10;99.90;;;;;;4990675;28;20050;-89
2022/06/26 11:31:27;;;;;;;3.60;2.08;;;25.30;99.90;;;;;;4988433;28;20061;-89
2022/06/26 11:33:52;;;;;;;3.22;2.20;;;25.20;99.90;;;;;;4973796;28;20050;-90
2022/06/26 11:36:18;;;;;;;4.25;2.20;;;25.40;99.90;;;;;;4989179;28;20053;-88
2022/06/26 11:38:53;;;;;;;2.58;2.00;;;25.30;99.90;;;;;;4989861;28;20042;-89
2022/06/26 11:41:19;;;;;;;2.88;1.83;;;25.70;99.90;;;;;;4988406;28;20046;-89
2022/06/26 11:43:53;;;;;;;3.28;1.60;;;25.70;99.90;;;;;;4989282;28;20058;-89
2022/06/26 11:46:19;;;;;;;2.63;1.77;;;25.60;99.90;;;;;;4988739;28;20042;-89
2022/06/26 11:48:45;;;;;;;1.75;1.50;;;25.90;99.90;;;;;;4972545;28;20393;-88
2022/06/26 11:51:12;;;;;;;2.05;1.60;;;25.60;99.90;;;;;;4991450;28;20438;-91
2022/06/26 11:53:38;;;;;;;1.75;1.50;;;25.80;99.90;;;;;;4991619;28;20461;-88
2022/06/26 11:56:04;;;;;;;2.80;2.00;;;25.50;99.90;;;;;;4981538;28;20050;-87
2022/06/26 11:58:31;;;;;;;2.80;1.73;;;25.30;99.90;;;;;;4974679;28;20069;-85
2022/06/26 12:01:08;;;;;;;2.58;1.83;;;25.00;99.90;;;;;;5005161;28;20077;-88
2022/06/26 12:03:35;;;;;;;3.00;2.00;;;24.80;99.90;;;;;;5004631;28;20490;-87
2022/06/26 12:06:01;;;;;;;2.80;1.80;;;24.80;99.90;;;;;;4989269;28;20081;-88
2022/06/26 12:08:28;;;;;;;2.35;1.70;;;24.60;99.90;;;;;;4972297;28;20051;-86
2022/06/26 12:10:54;;;;;;;5.68;1.98;;;24.70;99.90;;;;;;4989704;28;20112;-90
2022/06/26 12:13:21;;;;;;;4.82;1.95;;;25.00;99.90;;;;;;5004850;28;20039;-90
2022/06/26 12:15:47;;;;;;;3.03;1.80;;;24.20;99.90;;;;;;5006641;28;20134;-86
2022/06/26 12:18:12;;;;;;;3.25;2.28;;;25.00;99.90;;;;;;4989864;28;20121;-89
2022/06/26 12:20:39;;;;;;;5.13;2.10;;;25.50;99.90;;;;;;4984021;28;20092;-85
2022/06/26 12:23:05;;;;;;;4.70;2.20;;;25.60;99.90;;;;;;4984971;28;20039;-84
2022/06/26 12:25:32;;;;;;;3.60;1.95;;;25.60;99.90;;;;;;4999821;28;20158;-87
2022/06/26 12:27:59;;;;;;;3.08;1.90;;;25.50;99.90;;;;;;4991900;28;20054;-86
2022/06/26 12:30:28;;;;;;;3.63;1.80;;;25.60;99.90;;;;;;4992127;28;20487;-88
2022/06/26 12:32:58;;;;;;;2.65;1.60;;;25.30;99.90;;;;;;4992595;28;20100;-87
2022/06/26 12:35:24;;;;;;;5.60;1.85;;;25.10;99.90;;;;;;4975655;28;20058;-92
2022/06/26 12:37:50;;;;;;;4.57;1.90;;;25.00;99.90;;;;;;4975706;28;20046;-88
2022/06/26 12:40:16;;;;;;;2.53;1.65;;;24.90;99.90;;;;;;4975845;28;20500;-87
2022/06/26 12:42:42;;;;;;;6.78;2.78;;;24.80;99.90;;;;;;4992706;28;20047;-86
2022/06/26 12:45:08;;;;;;;3.65;2.00;;;25.20;99.90;;;;;;4975714;28;20058;-87
2022/06/26 12:47:33;;;;;;;3.35;2.00;;;25.40;99.90;;;;;;4990828;28;20054;-86
2022/06/26 12:49:59;;;;;;;3.92;1.90;;;25.40;99.90;;;;;;4991504;28;20061;-87